Time;durP1;ratioP1;P1;durP2;ratioP2;P2;SDS_P1;SDS_P2;PMS_P1;PMS_P2;Temp;Humidity;BMP_temperature;BMP_pressure;BME280_temperature;BME280_humidity;BME280_pressure;Samples;Min_cycle;Max_cycle;Signal;HPM_P1;HPM_P2
2022/09/02 00:02:00;;;;;;;3.67;1.00;;;;;;;18.64;51.59;97254.59;10496575;28;20044;-49
2022/09/02 00:07:20;;;;;;;3.42;0.95;;;;;;;18.60;51.47;97254.41;10497153;28;20052;-50
2022/09/02 00:12:39;;;;;;;3.10;1.10;;;;;;;18.56;51.26;97248.00;10507707;28;20052;-50
2022/09/02 00:18:00;;;;;;;2.40;1.20;;;;;;;18.53;51.17;97249.44;10503421;28;20072;-50
2022/09/02 00:23:20;;;;;;;1.25;1.10;;;;;;;18.49;51.16;97251.16;10503494;28;20086;-48
2022/09/02 00:28:40;;;;;;;1.40;1.00;;;;;;;18.48;51.09;97243.34;10516840;28;20047;-50
2022/09/02 00:34:00;;;;;;;1.77;0.90;;;;;;;18.43;50.83;97244.28;10516307;28;20712;-49
2022/09/02 00:39:19;;;;;;;2.72;0.85;;;;;;;18.41;50.76;97237.63;10487314;28;20057;-47
2022/09/02 00:44:38;;;;;;;1.73;1.00;;;;;;;18.38;50.80;97236.31;10501580;28;20056;-50
2022/09/02 00:49:58;;;;;;;1.92;1.00;;;;;;;18.36;50.47;97233.13;10505479;28;20042;-49
2022/09/02 00:55:40;;;;;;;2.83;1.17;;;;;;;18.32;50.34;97227.53;10490816;28;20060;-50
2022/09/02 01:01:00;;;;;;;2.38;0.90;;;;;;;18.29;50.58;97233.56;10487451;28;20053;-49
2022/09/02 01:06:23;;;;;;;1.13;0.85;;;;;;;18.27;50.42;97230.34;10502211;28;20049;-49
2022/09/02 01:11:47;;;;;;;2.20;1.10;;;;;;;18.23;50.41;97229.38;10498228;28;20511;-50
2022/09/02 01:17:06;;;;;;;1.95;1.10;;;;;;;18.20;50.37;97229.97;10514808;28;20068;-50
2022/09/02 01:22:29;;;;;;;2.40;1.10;;;;;;;18.18;50.41;97235.66;10503127;28;20052;-49
2022/09/02 01:27:49;;;;;;;2.83;1.33;;;;;;;18.14;50.28;97226.59;10488593;28;20056;-50
2022/09/02 01:33:09;;;;;;;2.00;1.17;;;;;;;18.11;50.30;97226.41;10500397;28;20102;-48
2022/09/02 01:38:30;;;;;;;1.30;1.20;;;;;;;18.08;50.30;97219.72;10506393;28;20048;-50
2022/09/02 01:43:50;;;;;;;1.65;1.10;;;;;;;18.07;50.36;97222.72;10485483;28;20056;-50
2022/09/02 01:49:09;;;;;;;2.47;1.08;;;;;;;18.06;50.27;97223.84;10502443;28;20416;-49
2022/09/02 01:54:29;;;;;;;2.45;1.02;;;;;;;18.02;50.20;97218.25;10504269;28;20400;-49
2022/09/02 01:59:51;;;;;;;1.60;1.10;;;;;;;18.00;50.18;97216.97;10499061;28;20050;-49
2022/09/02 02:05:12;;;;;;;1.40;1.08;;;;;;;18.01;50.05;97213.16;10484814;28;20056;-50
2022/09/02 02:10:33;;;;;;;1.13;1.00;;;;;;;18.02;50.11;97222.84;10488456;28;20048;-49
2022/09/02 02:15:53;;;;;;;1.23;1.10;;;;;;;18.01;49.91;97216.63;10498937;28;20052;-50
2022/09/02 02:21:12;;;;;;;1.48;1.10;;;;;;;17.99;49.81;97208.06;10502120;28;20051;-49
2022/09/02 02:26:32;;;;;;;1.23;1.00;;;;;;;17.97;49.73;97208.38;10501123;28;20051;-48
2022/09/02 02:31:51;;;;;;;1.75;1.00;;;;;;;17.96;49.80;97209.47;10488177;28;20504;-49
2022/09/02 02:37:12;;;;;;;1.60;1.00;;;;;;;17.95;49.80;97215.16;10502887;28;20079;-50
2022/09/02 02:42:31;;;;;;;3.10;1.00;;;;;;;17.91;49.83;97206.88;10483386;28;20061;-49
2022/09/02 02:47:52;;;;;;;2.20;1.00;;;;;;;17.88;49.61;97212.09;10497510;28;20047;-49
2022/09/02 02:53:13;;;;;;;1.00;0.90;;;;;;;17.82;49.64;97214.06;10514882;28;20074;-49
2022/09/02 02:58:33;;;;;;;2.55;0.98;;;;;;;17.79;49.66;97207.38;10496481;28;20044;-48
2022/09/02 03:03:54;;;;;;;1.10;1.00;;;;;;;17.74;49.69;97202.09;10477333;28;20057;-49
2022/09/02 03:09:15;;;;;;;2.72;1.08;;;;;;;17.70;49.58;97203.00;10500907;28;20098;-49
2022/09/02 03:14:36;;;;;;;2.63;1.27;;;;;;;17.66;49.67;97193.91;10497503;28;20079;-49
2022/09/02 03:19:58;;;;;;;2.65;0.93;;;;;;;17.63;49.71;97194.53;10498170;28;20040;-47
2022/09/02 03:25:19;;;;;;;1.83;1.33;;;;;;;17.61;49.61;97199.44;10482186;28;20075;-48
2022/09/02 03:30:40;;;;;;;1.73;1.30;;;;;;;17.57;49.63;97200.03;10490151;28;20053;-48
2022/09/02 03:36:00;;;;;;;1.40;1.10;;;;;;;17.55;49.73;97196.84;10500617;28;20505;-50
2022/09/02 03:41:20;;;;;;;1.10;0.85;;;;;;;17.49;49.64;97206.13;10481766;28;20146;-48
2022/09/02 03:46:41;;;;;;;0.82;0.82;;;;;;;17.47;49.78;97197.53;10489901;28;20102;-49
2022/09/02 03:52:01;;;;;;;2.00;1.00;;;;;;;17.45;49.67;97205.13;10508811;28;20109;-48
2022/09/02 03:57:24;;;;;;;1.20;1.10;;;;;;;17.42;49.65;97203.03;10478721;28;20067;-49
2022/09/02 04:02:44;;;;;;;2.85;1.00;;;;;;;17.40;49.67;97210.59;10503797;28;20388;-48
2022/09/02 04:08:05;;;;;;;2.08;1.10;;;;;;;17.38;49.66;97207.41;10500547;28;20059;-48
2022/09/02 04:13:24;;;;;;;2.83;1.10;;;;;;;17.34;49.53;97203.72;10489219;28;20063;-49
2022/09/02 04:18:44;;;;;;;1.55;0.85;;;;;;;17.30;49.55;97203.53;10491907;28;20063;-47
2022/09/02 04:24:05;;;;;;;1.30;0.85;;;;;;;17.30;49.70;97210.81;10488268;28;20492;-49
2022/09/02 04:29:26;;;;;;;1.33;1.10;;;;;;;17.27;49.63;97206.84;10488204;28;20044;-49
2022/09/02 04:34:46;;;;;;;1.45;1.10;;;;;;;17.24;49.66;97207.41;10505637;28;20036;-48
2022/09/02 04:40:06;;;;;;;2.28;1.08;;;;;;;17.23;49.54;97205.03;10512176;28;20063;-49
2022/09/02 04:45:26;;;;;;;3.50;1.10;;;;;;;17.22;49.57;97208.81;10502907;28;20049;-49
2022/09/02 04:50:46;;;;;;;2.35;1.08;;;;;;;17.20;49.71;97215.28;10491448;28;20052;-49
2022/09/02 04:56:10;;;;;;;3.95;1.00;;;;;;;17.19;49.88;97202.94;10486733;28;20052;-50
2022/09/02 05:01:33;;;;;;;1.63;1.00;;;;;;;17.18;49.92;97206.72;10504357;28;20052;-47
2022/09/02 05:07:00;;;;;;;1.10;0.90;;;;;;;17.18;50.08;97209.41;10500882;28;20053;-48
2022/09/02 05:12:21;;;;;;;2.72;0.98;;;;;;;17.19;50.07;97211.00;10500110;28;20037;-50
2022/09/02 05:17:45;;;;;;;1.40;0.90;;;;;;;17.21;50.35;97210.72;10503143;28;20060;-48
2022/09/02 05:23:05;;;;;;;0.98;0.90;;;;;;;17.22;50.46;97209.59;10486226;28;20057;-48
2022/09/02 05:28:24;;;;;;;1.15;1.00;;;;;;;17.25;50.57;97217.09;10500475;28;20048;-47
2022/09/02 05:33:45;;;;;;;1.33;0.90;;;;;;;17.25;50.80;97206.34;10489605;28;20563;-49
2022/09/02 05:39:10;;;;;;;1.10;1.00;;;;;;;17.26;50.93;97207.13;10485058;28;20377;-48
2022/09/02 05:44:31;;;;;;;0.82;0.77;;;;;;;17.28;50.96;97205.72;10513912;28;20045;-49
2022/09/02 05:49:51;;;;;;;1.58;0.90;;;;;;;17.31;51.07;97204.34;10504455;28;20048;-47
2022/09/02 05:55:11;;;;;;;1.65;0.88;;;;;;;17.32;51.01;97205.94;10500199;28;20103;-47
2022/09/02 06:00:32;;;;;;;2.10;1.00;;;;;;;17.34;51.27;97209.13;10516990;28;20480;-47
2022/09/02 06:05:57;;;;;;;2.33;1.10;;;;;;;17.34;51.53;97209.91;10483934;28;20070;-48
2022/09/02 06:11:18;;;;;;;0.98;0.90;;;;;;;17.35;51.36;97202.66;10484489;28;20060;-48
2022/09/02 06:16:38;;;;;;;1.45;0.90;;;;;;;17.37;51.52;97197.75;10500823;28;20440;-49
2022/09/02 06:22:02;;;;;;;1.23;0.90;;;;;;;17.36;51.51;97202.31;10497360;28;20381;-48
2022/09/02 06:27:22;;;;;;;2.78;1.05;;;;;;;17.38;51.70;97210.09;10483755;28;20098;-50
2022/09/02 06:32:45;;;;;;;1.50;1.00;;;;;;;17.40;52.06;97202.53;10489935;28;20056;-48
2022/09/02 06:38:06;;;;;;;1.27;0.88;;;;;;;17.39;51.98;97204.44;10483029;28;20132;-47
2022/09/02 06:43:26;;;;;;;2.25;0.82;;;;;;;17.44;51.78;97202.72;10498372;28;20057;-48
2022/09/02 06:48:57;;;;;;;1.85;1.00;;;;;;;17.45;52.02;97205.13;10483315;28;20098;-47
2022/09/02 06:54:19;;;;;;;2.03;1.38;;;;;;;17.48;52.46;97211.81;10524629;28;20503;-48
2022/09/02 06:59:42;;;;;;;1.60;1.10;;;;;;;17.50;52.40;97213.09;10500935;28;20040;-48
2022/09/02 07:05:14;;;;;;;1.40;0.90;;;;;;;17.50;52.38;97215.00;10511069;28;20041;-49
2022/09/02 07:10:38;;;;;;;1.30;0.82;;;;;;;17.51;52.33;97214.69;10482467;28;20079;-48
2022/09/02 07:16:00;;;;;;;1.60;1.05;;;;;;;17.53;52.36;97212.50;10486168;28;20052;-50
2022/09/02 07:21:20;;;;;;;0.70;0.70;;;;;;;17.54;52.26;97216.81;10481977;28;20055;-49
2022/09/02 07:26:41;;;;;;;1.23;0.60;;;;;;;17.56;52.53;97224.56;10497183;28;20051;-49
2022/09/02 07:32:01;;;;;;;0.88;0.70;;;;;;;17.56;52.24;97221.88;10482830;28;20067;-47
2022/09/02 07:37:21;;;;;;;1.15;0.88;;;;;;;17.56;52.34;97206.53;10495097;28;20055;-46
2022/09/02 07:42:42;;;;;;;2.20;0.90;;;;;;;17.57;52.24;97216.19;10482434;28;20052;-48
2022/09/02 07:48:06;;;;;;;1.40;0.80;;;;;;;17.58;52.51;97212.41;10509610;28;20049;-47
2022/09/02 07:53:27;;;;;;;1.40;0.80;;;;;;;17.59;52.54;97210.50;10481471;28;20052;-48
2022/09/02 07:58:47;;;;;;;1.02;0.80;;;;;;;17.60;52.49;97212.09;10499982;28;20071;-49
2022/09/02 08:04:06;;;;;;;1.33;0.65;;;;;;;17.62;52.46;97215.31;10481384;28;20048;-49
2022/09/02 08:09:28;;;;;;;1.45;0.90;;;;;;;17.63;52.45;97202.63;10481159;28;20053;-47
2022/09/02 08:14:48;;;;;;;0.60;0.60;;;;;;;17.63;52.49;97202.63;10514014;28;20090;-50
2022/09/02 08:20:10;;;;;;;0.70;0.70;;;;;;;17.64;52.64;97204.19;10508942;28;20040;-48
2022/09/02 08:25:31;;;;;;;0.70;0.60;;;;;;;17.65;53.02;97203.13;10495892;28;20063;-48
2022/09/02 08:30:51;;;;;;;1.13;0.80;;;;;;;17.65;53.00;97203.91;10507250;28;20051;-49
2022/09/02 08:36:13;;;;;;;0.68;0.57;;;;;;;17.66;53.08;97202.81;10498430;28;20369;-48
2022/09/02 08:48:34;;;;;;;0.77;0.60;;;;;;;17.67;53.09;97190.13;10449525;28;20052;-48
2022/09/02 08:54:01;;;;;;;0.65;0.60;;;;;;;17.69;53.07;97190.63;10435238;23;20092;-79
2022/09/02 08:59:25;;;;;;;0.60;0.60;;;;;;;17.69;53.07;97187.94;10373721;28;20048;-79
2022/09/02 09:05:01;;;;;;;1.13;0.50;;;;;;;17.70;53.12;97184.13;10370323;28;20038;-79
2022/09/02 09:10:46;;;;;;;1.00;0.60;;;;;;;17.71;53.09;97186.53;10401272;28;20061;-79
2022/09/02 09:16:15;;;;;;;1.15;0.73;;;;;;;17.71;53.00;97191.91;10375771;28;20440;-79
2022/09/02 09:21:35;;;;;;;1.98;0.70;;;;;;;17.72;53.05;97187.31;10384120;28;20042;-79
2022/09/02 09:26:55;;;;;;;0.90;0.63;;;;;;;17.73;52.78;97173.56;10408261;28;20047;-79
2022/09/02 09:32:38;;;;;;;1.20;0.80;;;;;;;17.75;52.98;97170.56;10367422;28;20042;-79
2022/09/02 09:37:58;;;;;;;0.70;0.60;;;;;;;17.74;52.97;97166.28;10408832;28;20041;-79
2022/09/02 09:43:18;;;;;;;0.93;0.60;;;;;;;17.76;52.72;97169.47;10328680;28;20042;-80
2022/09/02 09:48:48;;;;;;;1.10;0.60;;;;;;;17.77;52.61;97168.34;10401917;28;20128;-79
2022/09/02 09:54:15;;;;;;;0.80;0.70;;;;;;;17.77;52.70;97168.34;10353805;28;20046;-79
2022/09/02 09:59:42;;;;;;;1.17;0.70;;;;;;;17.77;52.57;97160.28;10357148;28;20048;-80
2022/09/02 10:05:18;;;;;;;0.75;0.63;;;;;;;17.78;52.64;97159.97;10388514;28;20038;-80
2022/09/02 10:10:38;;;;;;;0.77;0.70;;;;;;;17.81;52.68;97157.78;10391037;28;20053;-79
2022/09/02 10:16:06;;;;;;;1.88;0.70;;;;;;;17.81;52.71;97147.00;10373804;28;20042;-79
2022/09/02 10:21:52;;;;;;;1.02;0.70;;;;;;;17.82;52.54;97141.31;10377514;28;20120;-79
2022/09/02 10:27:19;;;;;;;2.67;1.20;;;;;;;17.82;52.67;97138.63;10394437;28;20042;-79
2022/09/02 10:33:08;;;;;;;9.25;1.10;;;;;;;17.84;52.73;97138.31;10374156;28;20048;-79
2022/09/02 10:39:17;;;;;;;4.03;1.50;;;;;;;17.84;52.81;97139.13;10363214;28;20062;-79
2022/09/02 10:44:59;;;;;;;2.97;1.00;;;;;;;17.84;52.90;97128.34;10360484;28;20048;-78
2022/09/02 10:50:38;;;;;;;1.88;0.75;;;;;;;17.86;52.91;97125.34;10344892;28;20077;-79
2022/09/02 10:56:02;;;;;;;0.93;0.80;;;;;;;17.86;53.08;97120.75;10391830;28;20042;-79
2022/09/02 11:01:27;;;;;;;1.25;0.70;;;;;;;17.86;52.95;97118.06;10362530;28;20053;-78
2022/09/02 11:06:48;;;;;;;0.80;0.80;;;;;;;17.87;52.65;97108.88;10385672;28;20096;-78
2022/09/02 11:12:10;;;;;;;1.20;0.65;;;;;;;17.88;52.58;97109.69;10392746;28;20587;-78
2022/09/02 11:17:38;;;;;;;0.60;0.60;;;;;;;17.90;52.44;97108.25;10367680;28;20046;-79
2022/09/02 11:23:01;;;;;;;0.80;0.80;;;;;;;17.90;52.21;97108.25;10397857;28;20045;-79
2022/09/02 11:29:06;;;;;;;0.60;0.57;;;;;;;17.90;52.24;97112.88;10369808;28;20050;-79
2022/09/02 11:34:45;;;;;;;1.20;0.60;;;;;;;17.89;51.47;97101.25;10370696;28;20044;-79
2022/09/02 11:40:08;;;;;;;1.40;0.90;;;;;;;17.89;51.12;97095.88;10380154;28;20049;-79
2022/09/02 11:45:30;;;;;;;1.10;0.60;;;;;;;17.90;51.41;97094.00;10340357;28;20046;-78
2022/09/02 11:51:25;;;;;;;0.75;0.60;;;;;;;17.89;50.50;97085.09;10376501;28;20053;-78
2022/09/02 11:56:49;;;;;;;1.02;0.70;;;;;;;17.90;50.43;97081.31;10376666;28;20386;-78
2022/09/02 12:02:09;;;;;;;1.20;0.60;;;;;;;17.91;50.54;97077.50;10378402;28;20060;-79
2022/09/02 12:07:28;;;;;;;0.82;0.70;;;;;;;17.91;50.74;97069.41;10371045;28;20054;-78
2022/09/02 12:12:48;;;;;;;1.15;0.60;;;;;;;17.91;50.59;97066.72;10358478;28;20044;-78
2022/09/02 12:18:12;;;;;;;2.92;0.88;;;;;;;17.91;50.45;97066.72;10385434;28;20057;-79
2022/09/02 12:23:51;;;;;;;2.75;1.30;;;;;;;17.93;50.32;97064.50;10400542;28;20052;-78
2022/09/02 12:29:30;;;;;;;2.00;1.00;;;;;;;17.95;50.12;97056.13;10375116;28;20104;-78
2022/09/02 12:34:54;;;;;;;4.80;1.42;;;;;;;17.96;49.99;97052.34;10364086;28;20061;-78
2022/09/02 12:40:16;;;;;;;3.40;1.40;;;;;;;17.97;49.50;97038.56;10389889;28;20106;-78
2022/09/02 12:45:41;;;;;;;4.50;1.70;;;;;;;17.98;49.87;97039.34;10377522;28;20046;-78
2022/09/02 12:51:01;;;;;;;2.95;1.40;;;;;;;18.00;50.08;97041.75;10374162;28;20563;-78
2022/09/02 12:56:22;;;;;;;2.33;1.20;;;;;;;18.01;49.55;97032.53;10395863;28;20042;-78
2022/09/02 13:02:29;;;;;;;2.60;0.82;;;;;;;18.04;49.04;97031.94;10389887;28;20125;-79
2022/09/02 13:07:58;;;;;;;2.70;1.10;;;;;;;18.04;49.49;97032.72;10363656;28;20038;-79
2022/09/02 13:13:48;;;;;;;1.65;0.77;;;;;;;18.03;49.32;97035.72;10395802;28;20056;-78
2022/09/02 13:19:15;;;;;;;1.40;0.75;;;;;;;18.02;49.50;97016.06;10386035;28;20053;-79
2022/09/02 13:24:39;;;;;;;1.88;1.23;;;;;;;18.04;49.49;97003.06;10403568;28;20041;-79
2022/09/02 13:30:32;;;;;;;1.17;0.88;;;;;;;18.05;49.65;97007.34;10375359;28;20053;-79
2022/09/02 13:35:58;;;;;;;2.58;0.85;;;;;;;18.04;50.00;97008.47;10377035;28;20042;-81
2022/09/02 13:41:28;;;;;;;2.85;1.13;;;;;;;18.06;50.06;97003.56;10401794;28;20049;-80
2022/09/02 13:47:15;;;;;;;1.55;1.00;;;;;;;18.06;50.45;97006.25;10373928;28;20049;-80
2022/09/02 13:52:37;;;;;;;1.58;1.10;;;;;;;18.07;50.79;96999.75;10349904;28;20049;-80
2022/09/02 13:58:07;;;;;;;1.75;0.88;;;;;;;18.07;51.07;96993.56;10355089;28;20050;-80
2022/09/02 14:03:28;;;;;;;2.88;1.00;;;;;;;18.07;51.15;96982.78;10381079;28;20039;-80
2022/09/02 14:08:49;;;;;;;1.38;0.90;;;;;;;18.09;50.99;96981.38;10396373;28;20409;-80
2022/09/02 14:14:18;;;;;;;1.00;0.77;;;;;;;18.09;51.26;96980.56;10368186;28;20444;-80
2022/09/02 14:19:37;;;;;;;1.60;1.00;;;;;;;18.10;51.40;96987.56;10364826;28;20551;-80
2022/09/02 14:24:57;;;;;;;1.33;0.90;;;;;;;18.11;51.60;96978.34;10374782;28;20041;-80
2022/09/02 14:30:33;;;;;;;1.42;0.93;;;;;;;18.12;51.61;96975.34;10368053;28;20046;-80
2022/09/02 14:36:09;;;;;;;1.00;0.80;;;;;;;18.14;51.69;96983.91;10387311;28;20045;-80
2022/09/02 14:41:34;;;;;;;2.08;0.80;;;;;;;18.14;51.79;96978.53;10380293;28;20048;-80
2022/09/02 14:46:55;;;;;;;4.50;1.10;;;;;;;18.14;51.76;96970.44;10390379;28;20088;-80
2022/09/02 14:52:24;;;;;;;0.80;0.80;;;;;;;18.15;51.75;96980.13;10364162;28;20057;-80
2022/09/02 14:57:44;;;;;;;1.77;0.95;;;;;;;18.15;51.91;96982.00;10366079;28;20485;-80
2022/09/02 15:03:04;;;;;;;1.00;0.88;;;;;;;18.17;51.49;96977.91;10372389;28;20050;-80
2022/09/02 15:08:24;;;;;;;1.45;0.80;;;;;;;18.18;51.44;96967.94;10379065;28;20045;-80
2022/09/02 15:13:43;;;;;;;0.98;0.73;;;;;;;18.20;51.66;96971.09;10379466;28;20042;-80
2022/09/02 15:19:03;;;;;;;0.93;0.82;;;;;;;18.21;51.48;96975.41;10381628;28;20046;-80
2022/09/02 15:24:23;;;;;;;1.00;0.75;;;;;;;18.20;51.66;96976.50;10398338;28;20486;-80
2022/09/02 15:29:42;;;;;;;1.67;0.90;;;;;;;18.21;51.72;96974.59;10371131;28;20052;-80
2022/09/02 15:35:03;;;;;;;0.68;0.68;;;;;;;18.20;51.94;96971.09;10344287;28;20461;-80
2022/09/02 15:40:23;;;;;;;1.35;0.90;;;;;;;18.20;51.82;96962.22;10384201;28;20038;-80
2022/09/02 15:45:47;;;;;;;0.73;0.70;;;;;;;18.21;51.91;96964.63;10397871;28;20050;-80
2022/09/02 15:51:11;;;;;;;0.70;0.70;;;;;;;18.21;52.00;96964.63;10367148;28;20050;-80
2022/09/02 15:56:33;;;;;;;1.08;0.82;;;;;;;18.21;51.97;96970.00;10378076;28;20092;-80
2022/09/02 16:01:55;;;;;;;1.17;0.90;;;;;;;18.21;52.21;96961.09;10355658;28;20069;-81
2022/09/02 16:07:14;;;;;;;1.02;0.80;;;;;;;18.22;52.22;96951.91;10396269;28;20160;-80
2022/09/02 16:12:33;;;;;;;0.93;0.70;;;;;;;18.22;52.22;96958.09;10376574;28;20481;-80
2022/09/02 16:17:53;;;;;;;2.30;0.60;;;;;;;18.23;52.13;96948.09;10379597;28;20038;-81
2022/09/02 16:23:12;;;;;;;0.80;0.65;;;;;;;18.24;52.22;96952.41;10390157;28;20037;-82
2022/09/02 16:28:47;;;;;;;1.80;0.75;;;;;;;18.24;51.95;96947.00;10370954;28;20042;-79
2022/09/02 16:34:09;;;;;;;1.48;0.60;;;;;;;18.23;51.42;96948.09;10406505;28;20042;-80
2022/09/02 16:39:29;;;;;;;2.28;0.80;;;;;;;18.22;50.86;96930.34;10409949;28;20037;-79
2022/09/02 16:44:48;;;;;;;1.73;0.60;;;;;;;18.22;50.84;96939.22;10377672;28;20042;-80
2022/09/02 16:50:09;;;;;;;0.70;0.60;;;;;;;18.20;50.37;96927.97;10365677;28;20042;-80
2022/09/02 16:55:29;;;;;;;1.20;0.70;;;;;;;18.21;49.84;96936.84;10390718;28;20049;-79
2022/09/02 17:00:49;;;;;;;0.77;0.60;;;;;;;18.21;49.86;96934.13;10374989;28;20050;-80
2022/09/02 17:06:08;;;;;;;1.98;0.70;;;;;;;18.18;49.60;96933.66;10357707;28;20076;-80
2022/09/02 17:11:32;;;;;;;0.85;0.70;;;;;;;18.19;49.61;96926.38;10383838;28;20133;-80
2022/09/02 17:16:52;;;;;;;3.45;1.00;;;;;;;18.16;49.59;96932.38;10398492;28;20051;-80
2022/09/02 17:22:11;;;;;;;7.60;1.38;;;;;;;18.18;49.70;96938.25;10388880;28;20046;-83
2022/09/02 17:27:31;;;;;;;7.55;1.60;;;;;;;18.19;50.44;96931.78;10383891;28;20461;-82
2022/09/02 17:32:51;;;;;;;4.13;1.30;;;;;;;18.20;50.72;96933.34;10404335;28;20523;-81
2022/09/02 17:38:11;;;;;;;2.92;1.02;;;;;;;18.20;51.01;96933.34;10392578;28;20045;-81
2022/09/02 17:43:30;;;;;;;3.13;1.00;;;;;;;18.21;51.10;96931.44;10374063;28;20408;-80
2022/09/02 17:48:50;;;;;;;3.38;1.08;;;;;;;18.22;51.67;96938.44;10385796;28;20045;-80
2022/09/02 17:54:11;;;;;;;9.77;1.33;;;;;;;18.21;49.82;96942.22;10374677;28;20045;-81
2022/09/02 17:59:36;;;;;;;4.75;1.10;;;;;;;18.15;49.71;96944.25;10388660;28;20120;-81
2022/09/02 18:05:34;;;;;;;5.47;1.17;;;;;;;18.15;50.53;96947.78;10378329;28;20050;-80
2022/09/02 18:10:56;;;;;;;;;;;;;;;18.18;50.80;96957.13;10377015;28;20046;-80
2022/09/02 18:16:46;;;;;;;3.70;1.08;;;;;;;18.20;51.11;96957.63;10382006;28;20321;-80
2022/09/02 18:22:27;;;;;;;5.03;1.27;;;;;;;18.20;50.81;96960.31;10346944;28;20081;-80
2022/09/02 18:27:54;;;;;;;2.13;1.20;;;;;;;18.19;50.67;96953.34;10380261;28;20130;-80
2022/09/02 18:33:19;;;;;;;8.23;1.27;;;;;;;18.20;51.18;96960.31;10387758;28;20048;-79
2022/09/02 18:39:16;;;;;;;1.70;0.90;;;;;;;18.21;51.53;96955.72;10390050;28;20564;-79
2022/09/02 18:44:47;;;;;;;2.38;1.00;;;;;;;18.22;51.86;96946.53;10352502;28;20038;-79
2022/09/02 18:50:07;;;;;;;5.63;1.20;;;;;;;18.22;52.16;96960.81;10374052;28;20053;-79
2022/09/02 18:55:36;;;;;;;2.13;0.98;;;;;;;18.22;52.32;96955.41;10391028;28;20042;-79
2022/09/02 19:00:57;;;;;;;4.65;1.10;;;;;;;18.23;52.53;96954.31;10363364;28;20092;-79
2022/09/02 19:06:22;;;;;;;1.83;1.27;;;;;;;18.24;52.60;96950.50;10385713;28;20044;-80
2022/09/02 19:11:42;;;;;;;5.63;1.38;;;;;;;18.26;53.13;96953.69;10347792;28;20046;-80
2022/09/02 19:17:02;;;;;;;8.15;1.52;;;;;;;18.28;53.62;96953.38;10397689;28;20050;-81
2022/09/02 19:22:25;;;;;;;6.70;1.50;;;;;;;18.28;54.13;96958.75;10377572;28;20046;-81
2022/09/02 19:27:47;;;;;;;7.63;1.38;;;;;;;18.30;54.58;96953.84;10377481;28;20045;-84
2022/09/02 19:33:08;;;;;;;5.60;1.10;;;;;;;18.30;54.51;96949.25;10384791;28;20164;-83
2022/09/02 19:38:28;;;;;;;3.92;1.40;;;;;;;18.31;54.97;96956.25;10367302;28;20049;-83
2022/09/02 19:43:47;;;;;;;6.97;1.35;;;;;;;18.32;55.39;96957.03;10356950;28;20050;-83
2022/09/02 19:49:07;;;;;;;4.55;1.40;;;;;;;18.33;55.59;96966.72;10389584;28;20123;-82
2022/09/02 19:54:28;;;;;;;5.75;1.20;;;;;;;18.34;55.55;96960.22;10382797;28;20062;-86
2022/09/02 19:59:47;;;;;;;2.15;1.20;;;;;;;18.34;55.76;96966.41;10383633;28;20107;-82
2022/09/02 20:05:11;;;;;;;3.55;1.10;;;;;;;18.37;55.87;96973.09;10350275;28;20041;-82
2022/09/02 20:10:30;;;;;;;4.88;1.30;;;;;;;18.37;56.18;96965.78;10380254;28;20053;-81
2022/09/02 20:15:52;;;;;;;4.05;1.10;;;;;;;18.40;56.10;96969.75;10375893;28;20124;-81
2022/09/02 20:21:17;;;;;;;4.85;1.45;;;;;;;18.40;56.32;96964.34;10369989;28;20034;-82
2022/09/02 20:27:17;;;;;;;3.20;1.30;;;;;;;18.40;56.23;96963.56;10367923;28;20046;-82
2022/09/02 20:32:41;;;;;;;2.75;1.25;;;;;;;18.39;56.14;96965.47;10384471;28;20057;-82
2022/09/02 20:38:18;;;;;;;5.45;1.30;;;;;;;18.39;56.14;96978.97;10392131;28;20045;-82
2022/09/02 20:44:18;;;;;;;4.63;1.30;;;;;;;18.38;56.15;96978.16;10367959;28;20046;-82
2022/09/02 20:49:53;;;;;;;2.88;1.10;;;;;;;18.38;56.15;96980.88;10391466;28;20161;-82
2022/09/02 20:55:30;;;;;;;2.08;1.13;;;;;;;18.40;56.31;96975.13;10375940;28;20038;-81
2022/09/02 21:01:07;;;;;;;3.35;1.10;;;;;;;18.39;56.20;96970.88;10362847;28;20092;-82
2022/09/02 21:06:32;;;;;;;2.22;1.30;;;;;;;18.39;56.25;96978.97;10367396;28;20049;-82
2022/09/02 21:11:57;;;;;;;2.95;1.02;;;;;;;18.40;56.14;96974.34;10391149;28;20037;-82
2022/09/02 21:17:28;;;;;;;3.00;0.98;;;;;;;18.41;56.18;96987.53;10352684;28;20052;-82
2022/09/02 21:22:52;;;;;;;1.50;1.13;;;;;;;18.42;56.24;96988.31;10378463;28;20113;-82
2022/09/02 21:28:16;;;;;;;3.33;1.10;;;;;;;18.41;56.16;96994.84;10375719;28;20037;-82
2022/09/02 21:33:36;;;;;;;3.40;1.17;;;;;;;18.41;56.23;97002.94;10362092;28;20041;-82
2022/09/02 21:38:57;;;;;;;2.47;1.10;;;;;;;18.42;56.20;96993.72;10365002;28;20053;-82
2022/09/02 21:44:32;;;;;;;1.65;1.00;;;;;;;18.42;56.30;96993.72;10387325;28;20046;-81
2022/09/02 21:50:10;;;;;;;3.17;1.20;;;;;;;18.42;56.35;96993.72;10391476;28;20049;-81
2022/09/02 21:55:34;;;;;;;1.40;1.00;;;;;;;18.43;56.40;96988.03;10380765;28;20042;-82
2022/09/02 22:01:06;;;;;;;1.73;1.00;;;;;;;18.43;56.35;96979.13;10364725;28;20041;-82
2022/09/02 22:06:46;;;;;;;2.75;1.10;;;;;;;18.43;56.50;96963.75;10353560;28;20061;-82
2022/09/02 22:12:13;;;;;;;1.85;0.90;;;;;;;18.43;56.50;96963.75;10360216;28;20041;-82
2022/09/02 22:17:37;;;;;;;1.05;0.75;;;;;;;18.43;56.42;96966.44;10374460;28;20393;-82
2022/09/02 22:23:02;;;;;;;1.70;1.00;;;;;;;18.44;56.42;96976.09;10387609;28;20394;-82
2022/09/02 22:28:30;;;;;;;1.52;0.95;;;;;;;18.44;56.67;96967.22;10372823;28;20081;-82
2022/09/02 22:33:54;;;;;;;2.33;1.08;;;;;;;18.45;56.65;96963.44;10364706;28;20481;-82
2022/09/02 22:39:17;;;;;;;1.67;0.93;;;;;;;18.45;56.59;96949.94;10355711;28;20043;-82
2022/09/02 22:56:08;;;;;;;1.20;0.80;;;;;;;18.46;56.60;96954.22;10362713;28;20405;-82
2022/09/02 23:01:53;;;;;;;1.75;1.00;;;;;;;18.46;56.53;96946.13;10377429;28;20041;-81
2022/09/02 23:07:13;;;;;;;1.48;1.00;;;;;;;18.45;56.57;96937.25;10345167;28;20452;-82
2022/09/02 23:12:52;;;;;;;1.60;0.80;;;;;;;18.46;56.64;96940.72;10371649;28;20072;-82
2022/09/02 23:18:17;;;;;;;1.10;0.85;;;;;;;18.46;56.64;96940.72;10361833;28;20046;-82
2022/09/02 23:23:52;;;;;;;1.45;1.00;;;;;;;18.46;56.72;96941.50;10399260;28;20045;-82
2022/09/02 23:29:25;;;;;;;1.67;0.98;;;;;;;18.47;56.71;96934.25;10383876;28;20050;-82
2022/09/02 23:35:03;;;;;;;1.75;0.90;;;;;;;18.47;56.82;96934.25;10347806;28;20042;-82
2022/09/02 23:40:53;;;;;;;1.42;0.88;;;;;;;18.46;56.94;96924.53;10385135;28;20440;-82
2022/09/02 23:46:34;;;;;;;1.38;1.00;;;;;;;18.47;56.94;96920.75;10348977;28;20516;-82
2022/09/02 23:52:09;;;;;;;1.33;0.90;;;;;;;18.48;56.83;96919.63;10367254;28;20050;-82
2022/09/02 23:57:47;;;;;;;1.35;0.80;;;;;;;18.47;56.95;96905.34;10357033;28;20137;-82
